Time;durP1;ratioP1;P1;durP2;ratioP2;P2;SDS_P1;SDS_P2;PMS_P1;PMS_P2;Temp;Humidity;BMP_temperature;BMP_pressure;BME280_temperature;BME280_humidity;BME280_pressure;Samples;Min_cycle;Max_cycle;Signal;HPM_P1;HPM_P2
2023/05/21 00:00:54;;;;;;;2.97;2.00;;;;;;;13.59;67.24;101759.56;5071713;28;20028;-84
2023/05/21 00:03:19;;;;;;;2.70;2.07;;;;;;;13.57;66.58;101756.97;5071940;28;20358;-85
2023/05/21 00:05:45;;;;;;;2.00;1.80;;;;;;;13.58;65.55;101757.84;5072349;28;20027;-85
2023/05/21 00:08:14;;;;;;;1.92;1.73;;;;;;;13.55;67.35;101756.13;5073522;28;20041;-85
2023/05/21 00:10:39;;;;;;;2.45;1.92;;;;;;;13.50;68.06;101749.25;5073505;28;20024;-85
2023/05/21 00:13:05;;;;;;;6.00;3.73;;;;;;;13.46;69.10;101755.38;5073206;28;20031;-86
2023/05/21 00:15:30;;;;;;;4.93;3.10;;;;;;;13.41;69.05;101745.88;5071952;28;20103;-85
2023/05/21 00:17:55;;;;;;;5.97;3.30;;;;;;;13.38;70.14;101748.50;5072097;28;20059;-85
2023/05/21 00:20:21;;;;;;;4.00;2.80;;;;;;;13.37;68.47;101745.88;5070901;28;20154;-85
2023/05/21 00:22:47;;;;;;;5.07;3.10;;;;;;;13.30;71.43;101739.88;5071444;28;20027;-86
2023/05/21 00:25:12;;;;;;;3.55;2.80;;;;;;;13.27;69.68;101737.34;5072090;28;20032;-85
2023/05/21 00:27:38;;;;;;;3.37;2.50;;;;;;;13.24;69.52;101733.00;5074737;28;20020;-85
2023/05/21 00:30:04;;;;;;;2.50;2.30;;;;;;;13.19;69.59;101720.91;5075342;28;20020;-85
2023/05/21 00:32:29;;;;;;;2.30;2.10;;;;;;;13.19;70.85;101729.59;5075511;28;20392;-85
2023/05/21 00:34:55;;;;;;;2.00;1.80;;;;;;;13.17;69.05;101731.38;5075072;28;20017;-85
2023/05/21 00:37:20;;;;;;;1.90;1.80;;;;;;;13.16;68.82;101728.78;5075349;28;20071;-85
2023/05/21 00:39:45;;;;;;;2.10;2.00;;;;;;;13.16;71.07;101734.00;5075174;28;20024;-85
2023/05/21 00:42:11;;;;;;;2.00;1.83;;;;;;;13.12;68.84;101734.03;5074042;28;20516;-85
2023/05/21 00:44:37;;;;;;;1.70;1.60;;;;;;;13.10;69.01;101737.53;5075065;28;20053;-85
2023/05/21 00:47:05;;;;;;;1.95;1.85;;;;;;;13.05;72.83;101723.69;5075416;28;20021;-85
2023/05/21 00:49:31;;;;;;;2.92;2.22;;;;;;;13.05;71.40;101728.91;5074821;28;20063;-85
2023/05/21 00:51:56;;;;;;;1.90;1.80;;;;;;;13.02;70.42;101727.19;5075366;28;20064;-86
2023/05/21 00:54:23;;;;;;;1.80;1.70;;;;;;;13.02;69.42;101726.31;5074965;28;20088;-85
2023/05/21 00:56:51;;;;;;;5.10;2.42;;;;;;;12.94;73.02;101726.44;5074816;28;20028;-85
2023/05/21 00:59:17;;;;;;;2.55;2.35;;;;;;;12.91;71.27;101721.25;5074688;28;20078;-85
2023/05/21 01:01:44;;;;;;;2.63;2.13;;;;;;;12.90;72.27;101724.72;5074845;28;20030;-85
2023/05/21 01:04:10;;;;;;;2.40;2.10;;;;;;;12.90;70.55;101732.53;5074091;28;20028;-85
2023/05/21 01:06:38;;;;;;;2.03;1.83;;;;;;;12.85;70.44;101721.28;5074850;28;20078;-85
2023/05/21 01:09:05;;;;;;;1.92;1.75;;;;;;;12.86;70.42;101731.72;5073823;28;20056;-85
2023/05/21 01:11:40;;;;;;;1.88;1.77;;;;;;;12.85;71.47;101724.78;5074716;28;20024;-85
2023/05/21 01:14:09;;;;;;;1.48;1.38;;;;;;;12.79;70.84;101724.81;5074241;28;20016;-85
2023/05/21 01:16:36;;;;;;;1.80;1.70;;;;;;;12.80;71.50;101723.94;5074019;28;20020;-85
2023/05/21 01:19:04;;;;;;;1.70;1.60;;;;;;;12.77;71.92;101724.84;5074096;28;20472;-85
2023/05/21 01:22:04;;;;;;;2.00;1.90;;;;;;;12.74;72.31;101721.44;5074926;28;20027;-85
2023/05/21 01:24:30;;;;;;;2.20;2.00;;;;;;;12.63;71.28;101700.69;5073657;28;20028;-86
2023/05/21 01:27:06;;;;;;;1.90;1.73;;;;;;;12.72;72.68;101724.03;5074127;28;20024;-85
2023/05/21 01:29:45;;;;;;;1.60;1.50;;;;;;;12.63;71.61;101701.56;5074486;28;20032;-85
2023/05/21 01:32:37;;;;;;;1.58;1.48;;;;;;;12.67;72.51;101718.00;5073011;28;20357;-85
2023/05/21 01:35:37;;;;;;;1.60;1.50;;;;;;;12.62;72.09;101720.66;5065184;28;20045;-84
2023/05/21 01:38:05;;;;;;;1.38;1.27;;;;;;;12.62;71.39;101715.47;5029054;28;20041;-85
2023/05/21 01:40:38;;;;;;;1.50;1.40;;;;;;;12.62;72.19;101707.66;5074358;28;20024;-85
2023/05/21 01:43:06;;;;;;;1.02;1.02;;;;;;;12.62;71.54;101712.84;5073687;28;20025;-85
2023/05/21 01:45:35;;;;;;;1.50;1.40;;;;;;;12.61;72.21;101710.28;5072939;28;20036;-86
2023/05/21 01:48:01;;;;;;;1.77;1.60;;;;;;;12.63;72.54;101718.91;5073426;28;20020;-85
2023/05/21 01:50:28;;;;;;;1.58;1.48;;;;;;;12.60;76.32;101714.59;5074506;28;20024;-85
2023/05/21 01:52:54;;;;;;;;;;;;;;;12.61;73.14;101712.88;5073748;28;20016;-86
2023/05/21 01:55:23;;;;;;;1.70;1.60;;;;;;;12.57;72.83;101709.41;5073579;28;19908;-86
2023/05/21 01:57:51;;;;;;;1.52;1.42;;;;;;;12.58;73.35;101705.09;5073833;28;20025;-85
2023/05/21 02:00:17;;;;;;;1.98;1.83;;;;;;;12.61;72.85;101708.53;5073343;28;20099;-85
2023/05/21 02:02:42;;;;;;;2.00;1.90;;;;;;;12.68;71.09;101704.13;5073164;28;20029;-86
2023/05/21 02:05:08;;;;;;;2.17;1.90;;;;;;;12.64;71.26;101699.81;5073383;28;20065;-85
2023/05/21 02:07:36;;;;;;;1.70;1.60;;;;;;;12.63;72.81;101701.56;5072866;28;20032;-85
2023/05/21 02:10:02;;;;;;;2.70;2.20;;;;;;;12.69;74.86;101702.38;5072983;28;20044;-85
2023/05/21 02:12:28;;;;;;;2.70;2.30;;;;;;;12.61;74.49;101684.25;5072612;28;20040;-86
2023/05/21 02:14:55;;;;;;;2.35;1.90;;;;;;;12.67;73.52;101691.97;5073427;28;20048;-85
2023/05/21 02:17:21;;;;;;;2.00;1.83;;;;;;;12.70;74.91;101696.28;5073321;28;20480;-86
2023/05/21 02:19:47;;;;;;;3.00;2.35;;;;;;;12.70;75.01;101704.97;5073031;28;20115;-85
2023/05/21 02:22:12;;;;;;;2.10;1.90;;;;;;;12.66;73.62;101692.84;5072792;28;20494;-85
2023/05/21 02:24:37;;;;;;;1.70;1.60;;;;;;;12.70;73.35;101699.75;5073237;28;20028;-85
2023/05/21 02:27:05;;;;;;;2.53;2.10;;;;;;;12.66;75.67;101692.84;5072245;28;20099;-85
2023/05/21 02:29:31;;;;;;;1.90;1.80;;;;;;;12.64;73.80;101678.97;5073004;28;20035;-85
2023/05/21 02:31:56;;;;;;;3.23;2.00;;;;;;;12.66;73.24;101682.44;5073019;28;20025;-85
2023/05/21 02:34:21;;;;;;;2.17;1.97;;;;;;;12.74;74.88;101701.44;5072292;28;20160;-85
2023/05/21 02:36:47;;;;;;;1.80;1.70;;;;;;;12.72;74.63;101694.53;5072670;28;20119;-85
2023/05/21 02:39:14;;;;;;;1.70;1.60;;;;;;;12.76;75.30;101696.22;5072614;28;20071;-84
2023/05/21 02:41:39;;;;;;;2.00;1.90;;;;;;;12.76;75.31;101699.69;5072482;28;20512;-85
2023/05/21 02:44:05;;;;;;;2.70;2.03;;;;;;;12.77;75.47;101691.00;5072807;28;20112;-85
2023/05/21 02:46:30;;;;;;;2.17;1.97;;;;;;;12.80;74.96;101695.28;5073055;28;20025;-85
2023/05/21 02:48:55;;;;;;;2.77;2.30;;;;;;;12.76;75.51;101681.44;5073711;28;20027;-85
2023/05/21 02:51:23;;;;;;;2.40;2.20;;;;;;;12.78;75.73;101684.03;5073739;28;20056;-85
2023/05/21 02:53:48;;;;;;;2.30;2.00;;;;;;;12.83;75.48;101690.91;5071180;28;20423;-85
2023/05/21 02:56:38;;;;;;;1.80;1.70;;;;;;;12.74;74.23;101671.94;5072427;28;20043;-85
2023/05/21 02:59:03;;;;;;;9.32;4.20;;;;;;;12.77;78.27;101679.72;5030360;28;20067;-85
2023/05/21 03:01:28;;;;;;;4.80;3.13;;;;;;;12.82;76.19;101678.78;5066965;28;20032;-85
2023/05/21 03:03:54;;;;;;;6.20;3.40;;;;;;;12.85;76.72;101683.09;5072141;28;20389;-85
2023/05/21 03:06:19;;;;;;;3.87;3.00;;;;;;;12.85;75.91;101677.88;5072090;28;20033;-85
2023/05/21 03:08:44;;;;;;;4.57;2.90;;;;;;;12.82;76.31;101672.69;5072077;28;20127;-85
2023/05/21 03:11:10;;;;;;;4.20;2.43;;;;;;;12.86;75.79;101679.63;5072595;28;20093;-85
2023/05/21 03:13:35;;;;;;;2.97;2.40;;;;;;;12.88;75.68;101671.78;5072856;28;20035;-85
2023/05/21 03:16:00;;;;;;;3.77;2.40;;;;;;;12.89;77.03;101670.91;5071632;28;20052;-85
2023/05/21 03:18:25;;;;;;;3.60;2.60;;;;;;;12.85;78.96;101664.88;5072458;28;20025;-85
2023/05/21 03:20:51;;;;;;;5.30;3.60;;;;;;;12.86;79.03;101663.97;5072731;28;20024;-84
2023/05/21 03:23:16;;;;;;;4.43;3.13;;;;;;;12.88;79.69;101661.34;5071268;28;20041;-85
2023/05/21 03:25:42;;;;;;;4.50;3.23;;;;;;;12.87;78.63;101655.28;5072680;28;20028;-86
2023/05/21 03:28:08;;;;;;;4.57;3.10;;;;;;;12.87;78.70;101662.22;5072450;28;20460;-85
2023/05/21 03:30:35;;;;;;;4.53;2.90;;;;;;;12.89;78.46;101658.72;5071941;28;20028;-85
2023/05/21 03:33:02;;;;;;;4.70;3.10;;;;;;;12.90;77.72;101664.81;5072083;28;20404;-85
2023/05/21 03:35:27;;;;;;;4.78;3.58;;;;;;;12.89;78.74;101658.72;5072476;28;20111;-85
2023/05/21 03:37:52;;;;;;;4.50;3.10;;;;;;;12.93;77.40;101655.19;5072109;28;20112;-85
2023/05/21 03:40:18;;;;;;;3.40;2.57;;;;;;;12.92;77.55;101655.22;5072315;28;20029;-85
2023/05/21 03:42:43;;;;;;;3.20;2.60;;;;;;;12.97;77.02;101669.06;5071984;28;20028;-86
2023/05/21 03:45:08;;;;;;;2.30;2.10;;;;;;;12.98;76.54;101669.06;5070950;28;20024;-85
2023/05/21 03:47:35;;;;;;;2.90;2.50;;;;;;;13.00;76.30;101657.75;5071897;28;20117;-85
2023/05/21 03:50:00;;;;;;;2.58;2.30;;;;;;;12.96;77.78;101654.28;5072153;28;20024;-85
2023/05/21 03:52:26;;;;;;;3.27;2.60;;;;;;;12.97;79.84;101666.44;5070991;28;20391;-85
2023/05/21 03:54:51;;;;;;;3.33;2.57;;;;;;;13.01;79.22;101662.06;5072070;28;20385;-85
2023/05/21 03:57:16;;;;;;;3.07;2.77;;;;;;;13.01;78.63;101668.16;5072288;28;20020;-85
2023/05/21 03:59:41;;;;;;;3.30;2.80;;;;;;;13.02;79.34;101664.66;5071076;28;20419;-85
2023/05/21 04:02:07;;;;;;;3.53;2.70;;;;;;;13.02;79.98;101653.34;5075433;28;20036;-85
2023/05/21 04:04:32;;;;;;;3.70;2.80;;;;;;;13.02;78.23;101653.34;5076769;28;20128;-85
2023/05/21 04:06:58;;;;;;;5.37;3.50;;;;;;;12.99;79.52;101659.47;5075467;28;20024;-85
2023/05/21 04:09:23;;;;;;;4.67;3.03;;;;;;;13.00;79.93;101663.81;5075597;28;20033;-85
2023/05/21 04:11:49;;;;;;;4.37;2.77;;;;;;;13.01;78.76;101670.75;5076131;28;20488;-86
2023/05/21 04:14:14;;;;;;;4.07;3.10;;;;;;;13.00;79.61;101669.03;5074986;28;20483;-85
2023/05/21 04:16:42;;;;;;;4.10;3.13;;;;;;;13.01;81.45;101675.09;5075970;28;20028;-86
2023/05/21 04:19:08;;;;;;;4.65;3.17;;;;;;;12.97;81.72;101663.84;5074432;28;20060;-85
2023/05/21 04:21:33;;;;;;;5.07;3.40;;;;;;;12.97;79.52;101669.06;5075436;28;20052;-86
2023/05/21 04:23:59;;;;;;;2.90;2.60;;;;;;;12.97;78.42;101667.31;5075112;28;20373;-85
2023/05/21 04:26:24;;;;;;;6.20;3.05;;;;;;;12.93;80.98;101665.63;5074842;28;20094;-85
2023/05/21 04:28:50;;;;;;;3.23;2.70;;;;;;;12.91;81.60;101664.78;5075671;28;20020;-85
2023/05/21 04:31:15;;;;;;;3.63;2.63;;;;;;;12.91;81.29;101661.31;5075160;28;20451;-86
2023/05/21 04:33:41;;;;;;;4.17;2.83;;;;;;;12.91;80.26;101663.94;5074801;28;20046;-86
2023/05/21 04:36:10;;;;;;;3.13;2.50;;;;;;;12.91;79.67;101674.34;5075288;28;20031;-85
2023/05/21 04:38:35;;;;;;;3.03;2.72;;;;;;;12.79;80.01;101651.88;5072949;28;20496;-86
2023/05/21 04:41:13;;;;;;;3.67;2.67;;;;;;;12.92;81.64;101676.06;5074500;28;20024;-85
2023/05/21 04:43:42;;;;;;;4.57;3.00;;;;;;;12.82;81.82;101655.34;5055400;28;20032;-85
2023/05/21 04:46:08;;;;;;;3.33;2.72;;;;;;;12.92;80.49;101673.47;5054749;28;20037;-85
2023/05/21 04:48:33;;;;;;;3.70;2.70;;;;;;;12.90;79.62;101665.66;5054540;28;20132;-85
2023/05/21 04:50:58;;;;;;;2.90;2.47;;;;;;;12.93;82.03;101675.19;5054597;28;20060;-85
2023/05/21 04:53:24;;;;;;;4.93;3.50;;;;;;;12.93;82.29;101677.81;5070768;28;20111;-85
2023/05/21 04:55:53;;;;;;;4.28;3.30;;;;;;;12.95;79.62;101683.84;5074567;28;20185;-85
2023/05/21 04:58:18;;;;;;;4.95;3.00;;;;;;;12.91;79.50;101671.75;5066096;28;20075;-85
2023/05/21 05:00:45;;;;;;;3.10;2.60;;;;;;;13.00;78.94;101678.59;5074873;28;20063;-85
2023/05/21 05:03:11;;;;;;;2.40;2.20;;;;;;;13.01;78.87;101677.69;5073861;28;20016;-85
2023/05/21 05:05:38;;;;;;;2.30;2.10;;;;;;;12.89;78.28;101656.09;5074815;28;20469;-86
2023/05/21 05:08:34;;;;;;;;;;;;;;;13.02;80.64;101680.28;5071479;28;20045;-86
2023/05/21 05:11:25;;;;;;;4.35;2.80;;;;;;;13.02;79.69;101688.13;5034820;28;19917;-85
2023/05/21 05:13:51;;;;;;;3.47;2.67;;;;;;;13.01;80.15;101681.19;5016985;28;20493;-85
2023/05/21 05:16:26;;;;;;;3.97;2.90;;;;;;;13.02;80.69;101675.09;5013545;28;20026;-85
2023/05/21 05:19:16;;;;;;;3.63;3.00;;;;;;;13.05;80.46;101679.38;5014805;28;20092;-85
2023/05/21 05:21:42;;;;;;;2.80;2.50;;;;;;;13.07;79.97;101670.66;5016214;28;20022;-85
2023/05/21 05:24:07;;;;;;;4.80;3.20;;;;;;;13.10;78.94;101668.03;5033974;28;20377;-86
2023/05/21 05:26:41;;;;;;;4.03;3.10;;;;;;;13.04;80.09;101651.59;5034074;28;20040;-86
2023/05/21 05:32:28;;;;;;;8.45;4.53;;;;;;;13.04;82.55;101660.31;5037943;28;20040;-86
2023/05/21 05:35:01;;;;;;;5.77;3.60;;;;;;;13.04;80.22;101652.47;5035425;28;20034;-85
2023/05/21 05:37:26;;;;;;;5.38;3.65;;;;;;;13.12;80.91;101655.84;5037927;28;20041;-86
2023/05/21 05:39:51;;;;;;;4.73;3.13;;;;;;;13.25;79.38;101673.94;5034726;28;20111;-85
2023/05/21 05:42:16;;;;;;;5.50;3.50;;;;;;;13.20;80.09;101649.66;5034059;28;20036;-86
2023/05/21 05:44:42;;;;;;;4.00;3.00;;;;;;;13.33;79.22;101674.69;5033469;28;20033;-86
2023/05/21 05:47:09;;;;;;;6.13;4.07;;;;;;;13.39;81.56;101676.34;5033408;28;20442;-85
2023/05/21 05:49:42;;;;;;;6.50;4.35;;;;;;;13.42;80.99;101678.94;5033762;28;20055;-87
2023/05/21 05:52:07;;;;;;;6.93;4.40;;;;;;;13.44;81.50;101675.44;5032516;28;20045;-85
2023/05/21 05:54:33;;;;;;;5.80;3.73;;;;;;;13.52;80.07;101674.44;5033406;28;20029;-86
2023/05/21 05:56:58;;;;;;;5.97;3.70;;;;;;;13.53;80.83;101665.75;5033504;28;20032;-85
2023/05/21 05:59:23;;;;;;;6.00;3.93;;;;;;;13.61;79.54;101671.72;5033246;28;20029;-85
2023/05/21 06:01:49;;;;;;;5.57;3.77;;;;;;;13.64;81.39;101668.22;5033954;28;20021;-86
2023/05/21 06:04:14;;;;;;;8.13;4.90;;;;;;;13.72;81.27;101676.78;5034020;28;20021;-86
2023/05/21 06:06:40;;;;;;;8.27;4.60;;;;;;;13.79;80.93;101680.16;5033026;28;20104;-86
2023/05/21 06:09:06;;;;;;;6.88;4.20;;;;;;;13.86;81.50;101685.25;5042142;28;20115;-85
2023/05/21 06:11:31;;;;;;;6.43;3.80;;;;;;;13.96;80.40;101679.88;5073123;28;20103;-85
2023/05/21 06:13:59;;;;;;;6.83;4.50;;;;;;;14.01;78.92;101684.16;5067732;28;20078;-85
2023/05/21 06:16:25;;;;;;;5.85;3.70;;;;;;;14.07;80.26;101679.72;5064487;28;20384;-86
2023/05/21 06:19:02;;;;;;;7.90;4.83;;;;;;;14.15;79.92;101680.44;5073098;28;20021;-86
2023/05/21 06:21:40;;;;;;;10.05;6.20;;;;;;;14.10;79.34;101674.44;5072808;28;20071;-87
2023/05/21 06:24:05;;;;;;;9.43;5.70;;;;;;;14.15;79.42;101676.06;5072014;28;20021;-85
2023/05/21 06:26:30;;;;;;;7.43;4.40;;;;;;;14.24;79.44;101666.38;5072280;28;20090;-88
2023/05/21 06:28:56;;;;;;;9.47;5.00;;;;;;;14.49;78.77;101677.25;5073622;28;20032;-86
2023/05/21 06:31:44;;;;;;;6.87;4.47;;;;;;;14.61;78.96;101657.84;5072677;28;20476;-86
2023/05/21 06:34:15;;;;;;;8.27;4.60;;;;;;;14.91;77.83;101673.88;5063795;28;20029;-87
2023/05/21 06:36:40;;;;;;;8.23;4.75;;;;;;;15.15;77.36;101685.56;5073200;28;20376;-82
2023/05/21 06:39:05;;;;;;;5.30;3.53;;;;;;;15.51;77.62;101679.56;5072612;28;20119;-86
2023/05/21 06:41:31;;;;;;;9.67;5.37;;;;;;;15.80;74.97;101668.41;5072472;28;20051;-86
2023/05/21 06:43:56;;;;;;;6.73;4.47;;;;;;;16.08;74.10;101670.41;5072984;28;20029;-88
2023/05/21 06:46:27;;;;;;;11.43;5.97;;;;;;;16.24;72.52;101677.84;5072230;28;20056;-87
2023/05/21 06:48:52;;;;;;;12.05;6.63;;;;;;;16.21;71.72;101674.41;5072419;28;20447;-85
2023/05/21 06:51:17;;;;;;;9.63;5.70;;;;;;;16.13;72.94;101676.38;5072303;28;20037;-88
2023/05/21 06:53:43;;;;;;;8.60;5.30;;;;;;;16.14;73.29;101677.25;5071942;28;20107;-85
2023/05/21 06:56:08;;;;;;;9.67;5.97;;;;;;;16.21;72.16;101676.19;5064989;28;20054;-89
2023/05/21 06:58:34;;;;;;;10.37;6.03;;;;;;;16.09;73.07;101677.38;5071370;28;20027;-86
2023/05/21 07:01:00;;;;;;;11.60;6.40;;;;;;;15.96;73.70;101671.56;5068286;28;20524;-86
2023/05/21 07:03:26;;;;;;;9.90;5.45;;;;;;;15.93;74.03;101671.63;5065993;28;20396;-86
2023/05/21 07:05:54;;;;;;;12.18;5.97;;;;;;;15.97;74.30;101665.41;5066444;28;20025;-87
2023/05/21 07:08:19;;;;;;;8.90;5.22;;;;;;;16.04;73.79;101661.75;5059836;28;20021;-88
2023/05/21 07:10:45;;;;;;;10.37;5.90;;;;;;;16.12;73.63;101661.56;5055229;28;20048;-87
2023/05/21 07:13:11;;;;;;;8.87;5.50;;;;;;;16.11;73.73;101656.38;5052426;28;20105;-86
2023/05/21 07:15:36;;;;;;;10.52;5.53;;;;;;;16.14;73.14;101654.53;5052224;28;20036;-86
2023/05/21 07:18:02;;;;;;;9.43;5.20;;;;;;;16.20;73.87;101653.50;5052691;28;20385;-89
2023/05/21 07:20:27;;;;;;;10.37;5.47;;;;;;;16.27;74.04;101651.59;5069422;28;20021;-79
2023/05/21 07:22:53;;;;;;;10.70;6.43;;;;;;;16.31;72.77;101658.47;5072477;28;20027;-80
2023/05/21 07:25:18;;;;;;;11.13;6.40;;;;;;;16.38;72.46;101649.53;5072596;28;20115;-89
2023/05/21 07:27:43;;;;;;;13.30;6.87;;;;;;;16.23;73.05;101645.56;5072277;28;20016;-85
2023/05/21 07:30:09;;;;;;;11.20;6.07;;;;;;;16.35;74.12;101652.25;5071645;28;20103;-85
2023/05/21 07:32:34;;;;;;;7.00;4.50;;;;;;;16.62;73.75;101655.03;5073358;28;20024;-87
2023/05/21 07:35:02;;;;;;;7.10;4.30;;;;;;;16.95;72.71;101653.22;5063170;28;20017;-86
2023/05/21 07:37:28;;;;;;;5.85;3.80;;;;;;;17.25;72.82;101647.09;5075079;28;20415;-87
2023/05/21 07:39:54;;;;;;;5.90;3.80;;;;;;;17.52;70.58;101647.16;5077049;28;20025;-91
2023/05/21 07:42:20;;;;;;;4.95;3.45;;;;;;;17.71;70.50;101645.66;5077215;28;20020;-91
2023/05/21 07:44:45;;;;;;;7.60;4.30;;;;;;;17.82;70.11;101642.69;5077347;28;20105;-91
2023/05/21 07:47:10;;;;;;;7.80;4.57;;;;;;;17.94;70.09;101653.69;5077446;28;20016;-91
2023/05/21 07:49:36;;;;;;;6.50;4.07;;;;;;;18.05;68.83;101651.59;5077432;28;20040;-92
2023/05/21 07:52:01;;;;;;;10.37;5.67;;;;;;;18.00;68.16;101654.41;5076356;28;20029;-83
2023/05/21 07:54:27;;;;;;;8.77;5.10;;;;;;;17.96;69.27;101654.53;5073856;28;20123;-87
2023/05/21 07:56:52;;;;;;;7.03;4.32;;;;;;;18.10;68.84;101654.91;5056991;28;20466;-89
2023/05/21 07:59:20;;;;;;;6.47;4.07;;;;;;;18.26;68.92;101652.63;5055558;28;20025;-90
2023/05/21 08:01:46;;;;;;;5.07;3.47;;;;;;;18.47;67.00;101655.41;5056374;28;20021;-91
2023/05/21 08:04:11;;;;;;;11.73;6.40;;;;;;;18.33;67.34;101654.16;5055535;28;20083;-88
2023/05/21 08:06:36;;;;;;;9.13;5.30;;;;;;;18.39;68.04;101657.44;5056766;28;20480;-90
2023/05/21 08:09:02;;;;;;;6.40;4.60;;;;;;;18.50;67.02;101648.28;5056010;28;20101;-90
2023/05/21 08:11:28;;;;;;;10.27;6.38;;;;;;;18.46;65.39;101643.19;5056052;28;20029;-89
2023/05/21 08:13:53;;;;;;;12.70;6.80;;;;;;;18.32;67.08;101655.06;5057121;28;20025;-90
2023/05/21 08:16:20;;;;;;;10.33;6.10;;;;;;;18.37;66.87;101644.38;5056951;28;20024;-88
2023/05/21 08:18:48;;;;;;;7.88;4.70;;;;;;;18.49;67.97;101649.19;5060885;28;20029;-89
2023/05/21 08:21:13;;;;;;;7.10;4.72;;;;;;;18.76;66.63;101650.88;5072756;28;20036;-87
2023/05/21 08:23:38;;;;;;;8.63;5.87;;;;;;;18.80;65.67;101649.84;5073859;28;20025;-88
2023/05/21 08:26:04;;;;;;;11.03;6.20;;;;;;;18.79;66.10;101642.88;5066030;28;20021;-88
2023/05/21 08:28:29;;;;;;;11.70;6.40;;;;;;;18.79;65.39;101648.13;5075886;28;20020;-88
2023/05/21 08:30:55;;;;;;;10.00;5.93;;;;;;;18.85;65.89;101634.75;5076196;28;20473;-89
2023/05/21 08:33:20;;;;;;;8.93;5.10;;;;;;;19.01;65.80;101635.06;5075154;28;20043;-89
2023/05/21 08:35:45;;;;;;;8.53;5.00;;;;;;;19.14;65.68;101625.78;5075812;28;20028;-92
2023/05/21 08:38:11;;;;;;;11.40;6.00;;;;;;;19.23;64.88;101632.47;5076231;28;20086;-89
2023/05/21 08:40:36;;;;;;;8.37;5.27;;;;;;;19.36;64.27;101629.34;5076225;28;20073;-91
2023/05/21 08:43:02;;;;;;;13.50;6.80;;;;;;;19.25;63.57;101632.38;5076701;28;20131;-89
2023/05/21 08:45:36;;;;;;;11.70;6.13;;;;;;;19.19;64.21;101622.97;5077159;28;20089;-87
2023/05/21 08:48:03;;;;;;;10.07;5.80;;;;;;;19.28;64.07;101621.75;5074022;28;20112;-88
2023/05/21 08:50:30;;;;;;;12.75;6.78;;;;;;;19.29;64.84;101624.31;5075568;28;20032;-88
2023/05/21 08:52:57;;;;;;;11.65;6.47;;;;;;;19.25;63.50;101622.72;5075041;28;20035;-87
2023/05/21 08:55:22;;;;;;;11.73;6.30;;;;;;;19.14;63.56;101617.00;5074562;28;20086;-87
2023/05/21 08:57:52;;;;;;;11.00;4.90;;;;;;;19.35;64.53;101622.38;5075127;28;20025;-86
2023/05/21 09:00:19;;;;;;;8.48;5.22;;;;;;;19.54;63.08;101620.69;5071385;28;20041;-88
2023/05/21 09:02:45;;;;;;;16.23;8.13;;;;;;;19.24;62.85;101617.50;5075104;28;20086;-88
2023/05/21 09:05:11;;;;;;;12.40;7.20;;;;;;;19.16;64.35;101617.81;5074723;28;20016;-88
2023/05/21 09:07:51;;;;;;;10.02;5.57;;;;;;;19.38;63.65;101616.97;5074441;28;20106;-87
2023/05/21 09:10:20;;;;;;;10.00;5.50;;;;;;;19.50;64.76;101611.19;5074475;28;20048;-87
2023/05/21 09:12:47;;;;;;;11.98;6.45;;;;;;;19.71;63.61;101614.75;5074617;28;20515;-88
2023/05/21 09:15:13;;;;;;;11.27;5.68;;;;;;;19.86;63.03;101618.53;5073585;28;20037;-89
2023/05/21 09:17:38;;;;;;;10.37;5.97;;;;;;;20.05;62.96;101615.09;5074467;28;20090;-87
2023/05/21 09:20:14;;;;;;;9.07;5.00;;;;;;;20.22;63.47;101617.00;5073837;28;20028;-89
2023/05/21 09:22:42;;;;;;;8.82;5.43;;;;;;;20.43;63.05;101611.75;5073860;28;20029;-87
2023/05/21 09:25:09;;;;;;;11.35;6.40;;;;;;;20.54;61.42;101617.38;5073873;28;20558;-86
2023/05/21 09:27:40;;;;;;;11.63;6.35;;;;;;;20.63;61.11;101624.88;5074638;28;20033;-88
2023/05/21 09:30:10;;;;;;;7.55;4.90;;;;;;;20.72;62.61;101620.09;5072307;28;20123;-88
2023/05/21 09:32:37;;;;;;;7.32;4.70;;;;;;;20.79;61.70;101614.50;5074489;28;20099;-85
2023/05/21 09:35:13;;;;;;;8.95;4.68;;;;;;;20.91;61.72;101614.88;5074249;28;20154;-87
2023/05/21 09:37:45;;;;;;;;;;;;;;;21.12;60.91;101626.16;5074279;28;20029;-88
2023/05/21 09:40:19;;;;;;;10.15;5.70;;;;;;;21.09;60.58;101610.50;5074326;28;19912;-88
2023/05/21 09:42:45;;;;;;;8.48;5.25;;;;;;;21.11;60.19;101609.50;5074307;28;20461;-88
2023/05/21 09:45:11;;;;;;;10.10;6.00;;;;;;;21.09;59.88;101611.34;5074026;28;20074;-86
2023/05/21 09:47:47;;;;;;;10.38;6.05;;;;;;;21.06;59.72;101595.66;5074033;28;20024;-88
2023/05/21 09:50:16;;;;;;;11.18;6.13;;;;;;;21.02;60.03;101588.81;5073187;28;20106;-87
2023/05/21 09:52:55;;;;;;;10.40;5.90;;;;;;;21.16;61.03;101601.34;5073849;28;20031;-87
2023/05/21 09:55:39;;;;;;;7.50;4.90;;;;;;;21.31;60.73;101588.34;5073353;28;20032;-86
2023/05/21 09:58:09;;;;;;;10.38;6.30;;;;;;;21.44;59.13;101598.22;5072152;28;20020;-85
2023/05/21 10:00:34;;;;;;;11.00;5.68;;;;;;;21.54;59.15;101603.03;5073480;28;20036;-86
2023/05/21 10:03:00;;;;;;;11.63;6.17;;;;;;;21.54;58.76;101595.13;5073463;28;20472;-85
2023/05/21 10:05:39;;;;;;;16.33;8.00;;;;;;;21.17;58.88;101586.41;5072906;28;20024;-86
2023/05/21 10:08:10;;;;;;;12.45;6.82;;;;;;;21.13;59.16;101580.38;5072746;28;20048;-86
2023/05/21 10:10:39;;;;;;;11.50;6.30;;;;;;;21.24;58.79;101579.88;5072413;28;20507;-85
2023/05/21 10:13:28;;;;;;;12.93;7.22;;;;;;;21.41;59.40;101587.81;5073183;28;20040;-86
2023/05/21 10:16:02;;;;;;;12.68;7.10;;;;;;;21.38;57.40;101585.34;5073262;28;20089;-88
2023/05/21 10:18:29;;;;;;;13.02;7.40;;;;;;;21.47;57.35;101584.00;5072553;28;20120;-86
2023/05/21 10:20:55;;;;;;;11.60;6.75;;;;;;;21.66;59.34;101583.16;5073379;28;20532;-86
2023/05/21 10:23:22;;;;;;;12.82;6.95;;;;;;;21.82;57.79;101581.41;5073053;28;20059;-85
2023/05/21 10:25:48;;;;;;;12.80;7.07;;;;;;;21.87;57.60;101578.53;5072229;28;20060;-77
2023/05/21 10:28:16;;;;;;;14.25;7.60;;;;;;;21.85;57.49;101586.56;5073479;28;20406;-91
2023/05/21 10:30:42;;;;;;;10.43;6.15;;;;;;;21.89;57.67;101582.81;5073933;28;20020;-80
2023/05/21 10:33:08;;;;;;;13.35;7.70;;;;;;;21.73;56.68;101581.88;5072308;28;20024;-84
2023/05/21 10:35:33;;;;;;;15.23;7.83;;;;;;;21.67;56.51;101571.66;5072490;28;20070;-82
2023/05/21 10:38:02;;;;;;;14.87;7.93;;;;;;;21.58;58.04;101572.94;5072479;28;20496;-82
2023/05/21 10:40:28;;;;;;;13.80;7.15;;;;;;;21.73;58.12;101553.66;5072957;28;20017;-88
2023/05/21 10:43:29;;;;;;;15.10;7.97;;;;;;;21.94;56.50;101561.44;5073257;28;20020;-89
2023/05/21 10:46:03;;;;;;;15.23;8.05;;;;;;;22.13;56.84;101565.75;5071765;28;20040;-89
2023/05/21 10:48:47;;;;;;;9.65;5.93;;;;;;;22.32;57.06;101555.06;5073216;28;20069;-87
2023/05/21 10:51:25;;;;;;;12.05;6.45;;;;;;;22.48;56.79;101550.66;5072913;28;20032;-88
2023/05/21 10:54:28;;;;;;;12.45;7.25;;;;;;;22.63;55.52;101543.69;5074351;28;20020;-88
2023/05/21 10:57:14;;;;;;;9.95;5.70;;;;;;;22.86;56.30;101546.84;5074785;28;20020;-87
2023/05/21 10:59:45;;;;;;;11.00;6.78;;;;;;;23.00;54.55;101543.44;5074663;28;20024;-87
2023/05/21 11:02:14;;;;;;;14.02;7.57;;;;;;;23.02;55.05;101532.75;5074491;28;20534;-87
2023/05/21 11:04:43;;;;;;;10.30;6.10;;;;;;;23.09;55.71;101531.44;5073014;28;20103;-87
2023/05/21 11:07:11;;;;;;;16.80;8.38;;;;;;;22.99;53.40;101531.97;5071399;28;20770;-88
2023/05/21 11:09:37;;;;;;;14.55;8.10;;;;;;;22.88;55.01;101529.06;5072537;28;20504;-87
2023/05/21 11:12:03;;;;;;;14.68;8.15;;;;;;;22.86;53.79;101516.88;5072530;28;20025;-88
2023/05/21 11:14:33;;;;;;;12.95;7.40;;;;;;;23.03;54.90;101523.84;5072326;28;20032;-87
2023/05/21 11:17:12;;;;;;;11.75;7.07;;;;;;;23.23;54.11;101520.94;5072405;28;20074;-87
2023/05/21 11:19:39;;;;;;;18.30;9.85;;;;;;;23.14;52.81;101518.81;5073914;28;20036;-87
2023/05/21 11:22:26;;;;;;;15.10;8.48;;;;;;;23.20;53.07;101512.34;5072313;28;20016;-87
2023/05/21 11:24:53;;;;;;;16.52;9.15;;;;;;;22.96;52.80;101507.47;5073375;28;20480;-88
2023/05/21 11:27:33;;;;;;;18.15;10.25;;;;;;;22.90;53.25;101503.38;5072389;28;20028;-88
2023/05/21 11:30:02;;;;;;;15.50;8.50;;;;;;;23.14;54.56;101500.28;5072429;28;20032;-88
2023/05/21 11:32:28;;;;;;;13.82;7.70;;;;;;;23.32;54.05;101495.72;5072334;28;20134;-87